createdAt,value
2022-09-21T00:00:40.447Z,10.38
2022-09-21T00:03:07.214Z,9.85
2022-09-21T00:05:34.217Z,9.40
2022-09-21T00:08:04.596Z,9.50
2022-09-21T00:10:31.298Z,8.80
2022-09-21T00:12:58.138Z,8.75
2022-09-21T00:15:24.963Z,8.55
2022-09-21T00:17:54.932Z,8.77
2022-09-21T00:20:21.792Z,9.73
2022-09-21T00:22:48.517Z,9.73
2022-09-21T00:25:15.276Z,9.43
2022-09-21T00:27:41.966Z,8.98
2022-09-21T00:30:09.237Z,9.48
2022-09-21T00:32:36.787Z,8.80
2022-09-21T00:35:03.982Z,10.52
2022-09-21T00:37:30.561Z,9.70
2022-09-21T00:39:57.170Z,9.18
2022-09-21T00:42:26.343Z,8.45
2022-09-21T00:44:52.936Z,9.68
2022-09-21T00:47:33.339Z,9.57
2022-09-21T00:50:00.702Z,12.65
2022-09-21T00:52:27.293Z,9.68
2022-09-21T00:55:00.413Z,7.90
2022-09-21T00:57:27.805Z,7.68
2022-09-21T00:59:55.980Z,10.65
2022-09-21T01:02:22.779Z,7.50
2022-09-21T01:04:49.385Z,7.32
2022-09-21T01:07:18.523Z,7.95
2022-09-21T01:09:47.012Z,9.32
2022-09-21T01:12:41.505Z,8.70
2022-09-21T01:15:40.165Z,8.85
2022-09-21T01:18:21.270Z,6.15
2022-09-21T01:21:04.105Z,5.60
2022-09-21T01:23:46.001Z,5.25
2022-09-21T01:26:15.374Z,5.90
2022-09-21T01:29:11.978Z,5.85
2022-09-21T01:31:44.633Z,6.55
2022-09-21T01:34:43.058Z,7.30
2022-09-21T01:37:12.894Z,6.72
2022-09-21T01:39:39.474Z,8.00
2022-09-21T01:42:06.549Z,7.07
2022-09-21T01:44:33.673Z,6.07
2022-09-21T01:47:01.715Z,8.60
2022-09-21T01:49:31.781Z,10.40
2022-09-21T01:52:01.413Z,8.63
2022-09-21T01:54:30.749Z,7.68
2022-09-21T01:57:32.525Z,8.48
2022-09-21T02:00:00.095Z,5.75
2022-09-21T02:02:44.407Z,5.45
2022-09-21T02:05:11.440Z,7.28
2022-09-21T02:07:38.720Z,6.55
2022-09-21T02:10:08.277Z,6.68
2022-09-21T02:12:34.907Z,7.32
2022-09-21T02:15:01.804Z,8.48
2022-09-21T02:17:41.210Z,9.70
2022-09-21T02:20:36.604Z,6.20
2022-09-21T02:23:12.210Z,6.45
2022-09-21T02:25:51.292Z,6.45
2022-09-21T02:28:20.787Z,5.70
2022-09-21T02:30:53.701Z,4.88
2022-09-21T02:33:24.898Z,5.35
2022-09-21T02:35:55.693Z,5.13
2022-09-21T02:38:26.625Z,5.70
2022-09-21T02:40:56.749Z,5.50
2022-09-21T02:44:00.497Z,5.85
2022-09-21T02:46:31.967Z,4.80
2022-09-21T02:49:15.237Z,5.15
2022-09-21T02:51:51.362Z,4.75
2022-09-21T02:54:20.162Z,5.50
2022-09-21T02:56:48.842Z,5.70
2022-09-21T02:59:16.650Z,4.50
2022-09-21T03:01:43.348Z,4.70
2022-09-21T03:04:10.715Z,4.50
2022-09-21T03:06:37.274Z,4.35
2022-09-21T03:09:03.963Z,7.25
2022-09-21T03:11:30.612Z,5.10
2022-09-21T03:13:57.303Z,5.10
2022-09-21T03:16:24.650Z,3.83
2022-09-21T03:18:51.423Z,3.97
2022-09-21T03:21:18.197Z,4.20
2022-09-21T03:23:44.760Z,4.90
2022-09-21T03:26:11.339Z,4.82
2022-09-21T03:28:37.967Z,4.88
2022-09-21T03:31:06.021Z,4.93
2022-09-21T03:33:32.767Z,4.18
2022-09-21T03:35:59.485Z,4.65
2022-09-21T03:38:26.934Z,4.95
2022-09-21T03:40:57.859Z,4.93
2022-09-21T03:43:24.512Z,5.90
2022-09-21T03:45:51.310Z,4.72
2022-09-21T03:48:17.912Z,4.50
2022-09-21T03:50:44.556Z,3.83
2022-09-21T03:53:18.333Z,3.55
2022-09-21T03:55:44.970Z,3.30
2022-09-21T03:58:11.523Z,3.45
2022-09-21T04:00:39.229Z,3.15
2022-09-21T04:03:05.781Z,3.90
2022-09-21T04:05:32.506Z,4.10
2022-09-21T04:08:02.066Z,3.90
2022-09-21T04:10:32.845Z,3.60
2022-09-21T04:13:01.325Z,4.15
2022-09-21T04:15:28.115Z,4.60
2022-09-21T04:17:54.782Z,4.32
2022-09-21T04:20:21.483Z,5.18
2022-09-21T04:22:48.113Z,4.70
2022-09-21T04:25:15.037Z,3.70
2022-09-21T04:27:41.709Z,3.47
2022-09-21T04:30:09.107Z,5.10
2022-09-21T04:32:35.672Z,7.53
2022-09-21T04:35:02.213Z,4.20
2022-09-21T04:37:28.773Z,3.83
2022-09-21T04:39:55.931Z,3.90
2022-09-21T04:42:23.341Z,3.42
2022-09-21T04:44:49.929Z,3.80
2022-09-21T04:47:16.497Z,3.47
2022-09-21T04:49:43.097Z,3.67
2022-09-21T04:52:09.657Z,3.58
2022-09-21T04:54:36.221Z,3.47
2022-09-21T04:57:02.855Z,3.75
2022-09-21T04:59:29.423Z,3.13
2022-09-21T05:01:56.069Z,3.58
2022-09-21T05:04:22.619Z,3.50
2022-09-21T05:06:49.219Z,3.20
2022-09-21T05:09:34.878Z,3.30
2022-09-21T05:12:03.051Z,3.10
2022-09-21T05:14:29.768Z,3.10
2022-09-21T05:16:56.392Z,2.97
2022-09-21T05:19:23.811Z,2.88
2022-09-21T05:21:50.374Z,3.30
2022-09-21T05:24:16.989Z,3.03
2022-09-21T05:26:43.602Z,2.95
2022-09-21T05:29:10.391Z,3.75
2022-09-21T05:31:48.825Z,2.88
2022-09-21T05:34:30.169Z,3.70
2022-09-21T05:37:21.929Z,3.55
2022-09-21T05:39:48.734Z,3.08
2022-09-21T05:42:15.505Z,3.20
2022-09-21T05:44:42.453Z,2.63
2022-09-21T05:47:20.516Z,2.90
2022-09-21T05:50:02.434Z,2.75
2022-09-21T05:52:39.368Z,2.67
2022-09-21T05:55:35.191Z,3.60
2022-09-21T06:01:09.377Z,3.17
2022-09-21T06:03:36.364Z,3.03
2022-09-21T06:06:03.079Z,3.22
2022-09-21T06:08:29.671Z,3.00
2022-09-21T06:10:56.398Z,3.50
2022-09-21T06:13:22.947Z,3.20
2022-09-21T06:15:49.552Z,3.05
2022-09-21T06:18:18.149Z,3.33
2022-09-21T06:20:45.248Z,3.53
2022-09-21T06:23:12.746Z,2.92
2022-09-21T06:25:39.385Z,3.10
2022-09-21T06:28:07.116Z,3.38
2022-09-21T06:30:34.823Z,3.30
2022-09-21T06:33:01.978Z,2.72
2022-09-21T06:35:29.099Z,3.63
2022-09-21T06:38:02.888Z,4.85
2022-09-21T06:40:29.711Z,5.10
2022-09-21T06:43:00.074Z,7.05
2022-09-21T06:45:27.185Z,6.30
2022-09-21T06:47:53.727Z,5.05
2022-09-21T06:50:20.329Z,4.57
2022-09-21T06:52:46.972Z,5.40
2022-09-21T06:55:13.766Z,5.80
2022-09-21T06:57:40.596Z,5.97
2022-09-21T07:00:09.190Z,6.63
2022-09-21T07:02:35.790Z,6.35
2022-09-21T07:05:02.469Z,7.30
2022-09-21T07:07:32.059Z,7.03
2022-09-21T07:10:07.422Z,6.03
2022-09-21T07:12:35.387Z,7.10
2022-09-21T07:15:08.161Z,4.88
2022-09-21T07:17:38.140Z,5.05
2022-09-21T07:20:06.890Z,4.70
2022-09-21T07:22:33.567Z,4.30
2022-09-21T07:25:00.188Z,5.82
2022-09-21T07:27:27.686Z,5.53
2022-09-21T07:29:54.227Z,6.13
2022-09-21T07:32:21.215Z,5.78
2022-09-21T07:34:48.399Z,5.43
2022-09-21T07:37:15.254Z,5.65
2022-09-21T07:39:41.893Z,5.18
2022-09-21T07:42:08.473Z,7.18
2022-09-21T07:44:35.065Z,6.90
2022-09-21T07:47:03.407Z,7.03
2022-09-21T07:49:30.064Z,6.07
2022-09-21T07:52:01.419Z,3.22
2022-09-21T07:54:30.377Z,3.22
2022-09-21T07:57:15.449Z,3.30
2022-09-21T07:59:42.029Z,3.88
2022-09-21T08:02:08.876Z,3.20
2022-09-21T08:04:35.662Z,3.13
2022-09-21T08:07:02.400Z,3.30
2022-09-21T08:09:28.986Z,3.20
2022-09-21T08:11:56.072Z,2.92
2022-09-21T08:14:26.255Z,2.63
2022-09-21T08:16:53.465Z,3.25
2022-09-21T08:19:20.616Z,3.28
2022-09-21T08:21:56.259Z,2.72
2022-09-21T08:24:25.583Z,2.92
2022-09-21T08:26:52.875Z,3.17
2022-09-21T08:29:19.700Z,2.75
2022-09-21T08:31:46.905Z,2.55
2022-09-21T08:34:14.462Z,2.50
2022-09-21T08:36:41.189Z,2.38
2022-09-21T08:39:08.396Z,17.45
2022-09-21T08:41:53.136Z,5.22
2022-09-21T08:44:25.022Z,2.50
2022-09-21T08:47:13.944Z,2.28
2022-09-21T08:49:41.268Z,2.42
2022-09-21T08:52:16.248Z,2.30
2022-09-21T08:54:57.129Z,2.10
2022-09-21T08:57:29.522Z,2.20
2022-09-21T08:59:56.209Z,2.40
2022-09-21T09:03:00.911Z,2.50
2022-09-21T09:05:55.480Z,2.80
2022-09-21T09:08:21.965Z,2.50
2022-09-21T09:10:55.428Z,2.47
2022-09-21T09:13:43.766Z,2.70
2022-09-21T09:16:39.629Z,2.85
2022-09-21T09:19:18.052Z,2.00
2022-09-21T09:21:44.642Z,2.28
2022-09-21T09:24:15.834Z,2.40
2022-09-21T09:26:52.836Z,2.08
2022-09-21T09:29:26.618Z,2.13
2022-09-21T09:31:54.854Z,2.05
2022-09-21T09:34:28.965Z,2.40
2022-09-21T09:37:00.480Z,2.70
2022-09-21T09:39:29.151Z,2.28
2022-09-21T09:42:26.648Z,2.55
2022-09-21T09:45:05.485Z,2.42
2022-09-21T09:47:44.534Z,2.20
2022-09-21T09:50:13.342Z,3.05
2022-09-21T09:52:40.339Z,2.33
2022-09-21T09:55:21.988Z,2.90
2022-09-21T09:57:49.134Z,2.85
2022-09-21T10:00:17.903Z,2.78
2022-09-21T10:02:56.438Z,2.60
2022-09-21T10:05:24.045Z,2.80
2022-09-21T10:07:50.824Z,2.50
2022-09-21T10:10:29.668Z,2.30
2022-09-21T10:13:35.070Z,2.97
2022-09-21T10:16:12.637Z,2.20
2022-09-21T10:18:46.361Z,2.20
2022-09-21T10:21:27.102Z,2.33
2022-09-21T10:24:21.816Z,2.08
2022-09-21T10:26:50.527Z,2.30
2022-09-21T10:29:23.048Z,1.90
2022-09-21T10:31:56.832Z,1.98
2022-09-21T10:34:23.433Z,1.70
2022-09-21T10:36:52.037Z,1.60
2022-09-21T10:39:38.804Z,1.27
2022-09-21T10:42:16.391Z,1.55
2022-09-21T10:44:44.834Z,1.60
2022-09-21T10:47:40.451Z,1.67
2022-09-21T10:50:43.807Z,1.70
2022-09-21T10:53:10.336Z,2.45
2022-09-21T10:55:44.082Z,1.70
2022-09-21T10:58:19.552Z,1.90
2022-09-21T11:00:51.869Z,1.65
2022-09-21T11:03:30.550Z,2.00
2022-09-21T11:05:59.947Z,1.80
2022-09-21T11:08:41.364Z,1.83
2022-09-21T11:11:36.465Z,1.80
2022-09-21T11:14:21.301Z,1.85
2022-09-21T11:16:56.790Z,1.50
2022-09-21T11:19:33.842Z,1.42
2022-09-21T11:22:19.071Z,1.42
2022-09-21T11:24:52.195Z,1.27
2022-09-21T11:27:32.218Z,1.30
2022-09-21T11:30:03.215Z,1.65
2022-09-21T11:33:12.020Z,1.23
2022-09-21T11:35:58.195Z,1.30
2022-09-21T11:38:58.588Z,1.15
2022-09-21T11:41:44.172Z,1.25
2022-09-21T11:44:40.937Z,1.35
2022-09-21T11:47:36.966Z,1.42
2022-09-21T11:50:30.520Z,1.77
2022-09-21T11:53:54.274Z,1.60
2022-09-21T11:56:44.242Z,1.80
2022-09-21T11:59:26.664Z,1.73
2022-09-21T12:01:56.131Z,2.00
2022-09-21T12:04:31.613Z,2.10
2022-09-21T12:07:13.753Z,1.90
2022-09-21T12:09:47.900Z,1.92
2022-09-21T12:12:25.547Z,1.77
2022-09-21T12:15:11.420Z,1.60
2022-09-21T12:17:50.253Z,1.40
2022-09-21T12:20:35.463Z,1.50
2022-09-21T12:23:04.704Z,1.40
2022-09-21T12:25:37.416Z,1.35
2022-09-21T12:28:22.910Z,1.63
2022-09-21T12:30:53.905Z,1.30
2022-09-21T12:33:26.450Z,1.50
2022-09-21T12:36:14.903Z,1.10
2022-09-21T12:38:48.817Z,1.13
2022-09-21T12:41:55.647Z,0.90
2022-09-21T12:44:52.269Z,1.08
2022-09-21T12:47:31.099Z,1.10
2022-09-21T12:50:02.589Z,1.40
2022-09-21T12:52:29.216Z,1.63
2022-09-21T12:54:58.598Z,2.40
2022-09-21T12:58:14.146Z,2.67
2022-09-21T13:00:42.729Z,2.35
2022-09-21T13:03:38.043Z,2.25
2022-09-21T13:06:12.454Z,1.92
2022-09-21T13:08:41.045Z,2.55
2022-09-21T13:11:10.548Z,1.83
2022-09-21T13:13:44.783Z,2.40
2022-09-21T13:16:51.474Z,2.20
2022-09-21T13:19:23.061Z,2.13
2022-09-21T13:22:19.830Z,2.40
2022-09-21T13:25:15.425Z,2.53
2022-09-21T13:28:26.727Z,2.20
2022-09-21T13:31:13.785Z,2.40
2022-09-21T13:34:06.481Z,2.00
2022-09-21T13:36:35.367Z,1.80
2022-09-21T13:39:14.105Z,2.00
2022-09-21T13:42:01.850Z,1.33
2022-09-21T13:44:42.013Z,1.60
2022-09-21T13:47:09.378Z,1.40
2022-09-21T13:49:50.869Z,1.40
2022-09-21T13:52:17.462Z,1.70
2022-09-21T13:54:52.674Z,2.42
2022-09-21T13:57:19.440Z,1.45
2022-09-21T13:59:57.375Z,1.92
2022-09-21T14:02:30.570Z,1.60
2022-09-21T14:04:57.318Z,1.52
2022-09-21T14:07:24.346Z,1.83
2022-09-21T14:09:55.379Z,2.30
2022-09-21T14:12:25.200Z,1.70
2022-09-21T14:15:12.583Z,1.50
2022-09-21T14:17:42.801Z,1.58
2022-09-21T14:20:34.644Z,1.98
2022-09-21T14:23:19.311Z,1.90
2022-09-21T14:25:59.141Z,1.67
2022-09-21T14:28:35.417Z,1.67
2022-09-21T14:31:34.735Z,1.70
2022-09-21T14:34:03.077Z,1.70
2022-09-21T14:36:38.374Z,2.28
2022-09-21T14:39:05.820Z,2.25
2022-09-21T14:41:39.214Z,2.53
2022-09-21T14:44:05.874Z,2.38
2022-09-21T14:46:54.775Z,3.42
2022-09-21T14:49:40.301Z,2.63
2022-09-21T14:52:13.458Z,3.10
2022-09-21T14:55:35.235Z,2.78
2022-09-21T14:58:42.921Z,3.50
2022-09-21T15:01:20.594Z,2.72
2022-09-21T15:03:48.302Z,3.22
2022-09-21T15:07:02.264Z,3.38
2022-09-21T15:09:56.532Z,3.00
2022-09-21T15:12:51.979Z,2.80
2022-09-21T15:15:57.465Z,2.90
2022-09-21T15:18:25.757Z,3.20
2022-09-21T15:21:01.563Z,2.92
2022-09-21T15:23:30.041Z,2.95
2022-09-21T15:26:02.700Z,2.83
2022-09-21T15:28:57.904Z,2.80
2022-09-21T15:31:22.231Z,2.50
2022-09-21T15:33:48.946Z,3.00
2022-09-21T15:36:28.896Z,2.80
2022-09-21T15:38:59.726Z,2.53
2022-09-21T15:41:42.575Z,2.70
2022-09-21T15:44:15.022Z,2.20
2022-09-21T15:46:43.249Z,2.38
2022-09-21T15:49:15.349Z,2.60
2022-09-21T15:51:45.246Z,2.67
2022-09-21T15:54:22.402Z,2.35
2022-09-21T15:56:49.072Z,2.53
2022-09-21T15:59:20.827Z,3.97
2022-09-21T16:01:49.338Z,5.30
2022-09-21T16:04:23.579Z,3.20
2022-09-21T16:07:02.982Z,2.22
2022-09-21T16:09:37.289Z,2.50
2022-09-21T16:12:25.916Z,2.40
2022-09-21T16:14:57.963Z,2.40
2022-09-21T16:17:28.659Z,2.67
2022-09-21T16:19:55.121Z,1.98
2022-09-21T16:23:00.127Z,2.42
2022-09-21T16:25:30.133Z,3.10
2022-09-21T16:27:58.371Z,3.00
2022-09-21T16:30:53.254Z,3.25
2022-09-21T16:33:38.016Z,3.17
2022-09-21T16:36:33.904Z,3.55
2022-09-21T16:39:01.188Z,3.45
2022-09-21T16:41:40.304Z,2.97
2022-09-21T16:44:12.974Z,3.30
2022-09-21T16:46:43.100Z,3.20
2022-09-21T16:49:16.845Z,3.28
2022-09-21T16:51:43.404Z,3.97
2022-09-21T16:54:09.998Z,4.18
2022-09-21T16:56:36.634Z,4.00
2022-09-21T16:59:10.546Z,4.80
2022-09-21T17:01:37.299Z,5.95
2022-09-21T17:04:04.325Z,5.13
2022-09-21T17:06:30.975Z,4.20
2022-09-21T17:08:57.704Z,4.72
2022-09-21T17:11:24.298Z,3.95
2022-09-21T17:13:50.997Z,4.00
2022-09-21T17:16:18.816Z,3.83
2022-09-21T17:18:46.099Z,4.15
2022-09-21T17:21:12.951Z,4.38
2022-09-21T17:23:40.160Z,7.82
2022-09-21T17:26:17.694Z,6.10
2022-09-21T17:28:44.509Z,4.18
2022-09-21T17:31:16.589Z,3.97
2022-09-21T17:33:43.661Z,3.72
2022-09-21T17:36:13.603Z,5.65
2022-09-21T17:38:40.503Z,6.65
2022-09-21T17:41:09.741Z,9.18
2022-09-21T17:43:38.242Z,4.60
2022-09-21T17:46:16.381Z,5.60
2022-09-21T17:48:43.183Z,7.35
2022-09-21T17:51:10.521Z,6.20
2022-09-21T17:53:37.503Z,5.80
2022-09-21T17:56:13.185Z,5.45
2022-09-21T17:58:44.897Z,5.60
2022-09-21T18:01:14.489Z,5.10
2022-09-21T18:03:42.623Z,4.15
2022-09-21T18:06:10.029Z,4.78
2022-09-21T18:08:37.843Z,3.97
2022-09-21T18:11:36.327Z,4.05
2022-09-21T18:14:37.874Z,4.07
2022-09-21T18:17:59.381Z,3.90
2022-09-21T18:20:51.616Z,3.40
2022-09-21T18:23:39.510Z,3.40
2022-09-21T18:26:10.235Z,3.70
2022-09-21T18:28:40.831Z,3.90
2022-09-21T18:31:30.098Z,4.03
2022-09-21T18:34:02.651Z,3.80
2022-09-21T18:36:37.275Z,3.42
2022-09-21T18:39:15.121Z,3.50
2022-09-21T18:41:46.969Z,3.55
2022-09-21T18:45:00.634Z,3.55
2022-09-21T18:47:38.733Z,2.67
2022-09-21T18:50:31.934Z,3.13
2022-09-21T18:53:40.502Z,4.00
2022-09-21T18:56:11.862Z,3.30
2022-09-21T18:58:39.504Z,4.63
2022-09-21T19:01:06.800Z,4.32
2022-09-21T19:03:33.936Z,4.57
2022-09-21T19:06:00.514Z,4.35
2022-09-21T19:08:26.985Z,4.47
2022-09-21T19:11:38.443Z,3.88
2022-09-21T19:14:20.575Z,4.22
2022-09-21T19:17:00.214Z,3.60
2022-09-21T19:19:48.703Z,3.97
2022-09-21T19:22:21.084Z,4.07
2022-09-21T19:24:58.433Z,4.30
2022-09-21T19:27:33.041Z,4.75
2022-09-21T19:30:06.341Z,4.97
2022-09-21T19:32:38.946Z,4.25
2022-09-21T19:35:30.528Z,5.65
2022-09-21T19:37:58.499Z,5.50
2022-09-21T19:40:32.577Z,5.53
2022-09-21T19:43:05.000Z,8.30
2022-09-21T19:45:55.835Z,6.68
2022-09-21T19:48:23.061Z,8.23
2022-09-21T19:50:54.830Z,7.00
2022-09-21T19:53:40.490Z,6.10
2022-09-21T19:56:44.154Z,6.60
2022-09-21T19:59:29.274Z,6.03
2022-09-21T20:01:57.944Z,7.07
2022-09-21T20:04:47.204Z,6.13
2022-09-21T20:07:58.160Z,4.88
2022-09-21T20:10:42.543Z,5.45
2022-09-21T20:13:14.923Z,6.68
2022-09-21T20:15:48.282Z,7.45
2022-09-21T20:18:48.929Z,8.32
2022-09-21T20:21:18.883Z,7.43
2022-09-21T20:23:50.072Z,6.75
2022-09-21T20:26:23.940Z,7.35
2022-09-21T20:28:54.285Z,8.32
2022-09-21T20:31:25.106Z,7.05
2022-09-21T20:33:53.763Z,5.57
2022-09-21T20:36:20.366Z,6.55
2022-09-21T20:38:46.975Z,5.72
2022-09-21T20:41:15.888Z,5.57
2022-09-21T20:43:42.550Z,5.65
2022-09-21T20:46:10.126Z,5.25
2022-09-21T20:48:37.637Z,5.35
2022-09-21T20:51:07.082Z,5.20
2022-09-21T20:53:34.153Z,5.88
2022-09-21T20:56:03.641Z,6.43
2022-09-21T20:58:30.599Z,6.22
2022-09-21T21:01:03.129Z,7.88
2022-09-21T21:03:29.756Z,12.55
2022-09-21T21:06:08.010Z,8.27
2022-09-21T21:08:34.559Z,7.32
2022-09-21T21:11:01.124Z,7.38
2022-09-21T21:13:31.057Z,7.15
2022-09-21T21:15:57.649Z,6.40
2022-09-21T21:18:24.289Z,6.80
2022-09-21T21:20:52.347Z,7.30
2022-09-21T21:23:21.070Z,7.10
2022-09-21T21:25:48.009Z,8.60
2022-09-21T21:28:14.717Z,8.10
2022-09-21T21:30:41.306Z,8.25
2022-09-21T21:33:07.863Z,11.77
2022-09-21T21:35:37.669Z,8.82
2022-09-21T21:38:04.289Z,13.00
2022-09-21T21:40:30.960Z,9.93
2022-09-21T21:42:57.616Z,11.25
2022-09-21T21:45:24.256Z,10.18
2022-09-21T21:47:50.951Z,10.00
2022-09-21T21:50:17.543Z,9.35
2022-09-21T21:52:45.238Z,8.25
2022-09-21T21:55:11.943Z,7.93
2022-09-21T21:57:38.535Z,7.03
2022-09-21T22:00:06.164Z,8.80
2022-09-21T22:02:33.005Z,10.52
2022-09-21T22:04:59.693Z,6.88
2022-09-21T22:07:26.279Z,7.53
2022-09-21T22:09:55.598Z,8.32
2022-09-21T22:12:22.192Z,7.93
2022-09-21T22:14:49.501Z,7.20
2022-09-21T22:17:16.122Z,7.28
2022-09-21T22:19:42.999Z,6.93
2022-09-21T22:22:09.565Z,8.27
2022-09-21T22:24:36.222Z,8.07
2022-09-21T22:27:02.856Z,8.05
2022-09-21T22:29:29.434Z,8.25
2022-09-21T22:31:57.154Z,8.10
2022-09-21T22:34:23.789Z,7.90
2022-09-21T22:36:50.745Z,7.57
2022-09-21T22:39:17.309Z,7.43
2022-09-21T22:41:43.880Z,7.22
2022-09-21T22:44:10.849Z,8.48
2022-09-21T22:46:37.642Z,7.53
2022-09-21T22:49:04.377Z,8.73
2022-09-21T22:51:31.043Z,7.43
2022-09-21T22:53:57.962Z,7.13
2022-09-21T22:56:29.324Z,6.10
2022-09-21T22:58:58.012Z,6.07
2022-09-21T23:01:25.840Z,6.63
2022-09-21T23:03:57.513Z,7.03
2022-09-21T23:06:26.748Z,6.72
2022-09-21T23:08:54.959Z,6.43
2022-09-21T23:11:28.364Z,5.57
2022-09-21T23:13:55.473Z,5.30
2022-09-21T23:16:22.684Z,4.95
2022-09-21T23:18:49.552Z,5.25
2022-09-21T23:21:18.511Z,5.55
2022-09-21T23:23:45.193Z,6.30
2022-09-21T23:26:16.608Z,5.15
2022-09-21T23:28:44.814Z,4.80
2022-09-21T23:31:13.161Z,6.60
2022-09-21T23:33:44.903Z,8.68
2022-09-21T23:36:12.737Z,6.15
2022-09-21T23:38:39.965Z,6.00
2022-09-21T23:41:11.450Z,6.53
2022-09-21T23:43:38.858Z,6.88
2022-09-21T23:46:05.768Z,5.93
2022-09-21T23:48:32.344Z,6.53
2022-09-21T23:50:59.222Z,6.93
2022-09-21T23:53:26.415Z,6.72
2022-09-21T23:55:53.127Z,8.60
2022-09-21T23:58:19.948Z,8.23
